sensor_id;sensor_type;location;lat;lon;timestamp;temperature;humidity
54832;DHT22;40730;53.068;6.572;2023-03-29T00:00:12;5.40;99.90
54832;DHT22;40730;53.068;6.572;2023-03-29T00:02:42;5.40;99.90
54832;DHT22;40730;53.068;6.572;2023-03-29T00:05:16;5.40;99.90
54832;DHT22;40730;53.068;6.572;2023-03-29T00:07:42;5.40;99.90
54832;DHT22;40730;53.068;6.572;2023-03-29T00:10:10;5.50;99.90
54832;DHT22;40730;53.068;6.572;2023-03-29T00:12:37;5.40;99.90
54832;DHT22;40730;53.068;6.572;2023-03-29T00:15:04;5.40;99.90
54832;DHT22;40730;53.068;6.572;2023-03-29T00:17:31;5.40;99.90
54832;DHT22;40730;53.068;6.572;2023-03-29T00:19:56;5.30;99.90
54832;DHT22;40730;53.068;6.572;2023-03-29T00:22:22;5.40;99.90
54832;DHT22;40730;53.068;6.572;2023-03-29T00:24:48;5.40;99.90
54832;DHT22;40730;53.068;6.572;2023-03-29T00:27:14;5.30;99.90
54832;DHT22;40730;53.068;6.572;2023-03-29T00:29:41;5.30;99.90
54832;DHT22;40730;53.068;6.572;2023-03-29T00:32:06;5.30;99.90
54832;DHT22;40730;53.068;6.572;2023-03-29T00:34:32;5.30;99.90
54832;DHT22;40730;53.068;6.572;2023-03-29T00:37:01;5.30;99.90
54832;DHT22;40730;53.068;6.572;2023-03-29T00:39:27;5.40;99.90
54832;DHT22;40730;53.068;6.572;2023-03-29T00:41:52;5.40;99.90
54832;DHT22;40730;53.068;6.572;2023-03-29T00:47:31;5.40;99.90
54832;DHT22;40730;53.068;6.572;2023-03-29T00:50:16;5.40;99.90
54832;DHT22;40730;53.068;6.572;2023-03-29T00:52:47;5.40;99.90
54832;DHT22;40730;53.068;6.572;2023-03-29T00:55:18;5.40;99.90
54832;DHT22;40730;53.068;6.572;2023-03-29T00:57:46;5.40;99.90
54832;DHT22;40730;53.068;6.572;2023-03-29T01:00:18;5.40;99.90
54832;DHT22;40730;53.068;6.572;2023-03-29T01:02:46;5.30;99.90
54832;DHT22;40730;53.068;6.572;2023-03-29T01:05:40;5.40;99.90
54832;DHT22;40730;53.068;6.572;2023-03-29T01:08:11;5.40;99.90
54832;DHT22;40730;53.068;6.572;2023-03-29T01:10:58;5.30;99.90
54832;DHT22;40730;53.068;6.572;2023-03-29T01:13:40;5.40;99.90
54832;DHT22;40730;53.068;6.572;2023-03-29T01:16:09;5.40;99.90
54832;DHT22;40730;53.068;6.572;2023-03-29T01:18:36;5.40;99.90
54832;DHT22;40730;53.068;6.572;2023-03-29T01:24:22;5.40;99.90
54832;DHT22;40730;53.068;6.572;2023-03-29T01:29:54;5.30;99.90
54832;DHT22;40730;53.068;6.572;2023-03-29T01:32:23;5.40;99.90
54832;DHT22;40730;53.068;6.572;2023-03-29T01:34:56;5.40;99.90
54832;DHT22;40730;53.068;6.572;2023-03-29T01:37:35;5.40;99.90
54832;DHT22;40730;53.068;6.572;2023-03-29T01:40:02;5.40;99.90
54832;DHT22;40730;53.068;6.572;2023-03-29T01:42:48;5.40;99.90
54832;DHT22;40730;53.068;6.572;2023-03-29T01:48:02;5.30;99.90
54832;DHT22;40730;53.068;6.572;2023-03-29T01:50:38;5.30;99.90
54832;DHT22;40730;53.068;6.572;2023-03-29T01:53:14;5.30;99.90
54832;DHT22;40730;53.068;6.572;2023-03-29T01:55:48;5.30;99.90
54832;DHT22;40730;53.068;6.572;2023-03-29T01:58:16;5.30;99.90
54832;DHT22;40730;53.068;6.572;2023-03-29T02:00:43;5.40;99.90
54832;DHT22;40730;53.068;6.572;2023-03-29T02:03:09;5.30;99.90
54832;DHT22;40730;53.068;6.572;2023-03-29T02:05:39;5.30;99.90
54832;DHT22;40730;53.068;6.572;2023-03-29T02:08:08;5.30;99.90
54832;DHT22;40730;53.068;6.572;2023-03-29T02:10:35;5.30;99.90
54832;DHT22;40730;53.068;6.572;2023-03-29T02:13:02;5.30;99.90
54832;DHT22;40730;53.068;6.572;2023-03-29T02:15:27;5.30;99.90
54832;DHT22;40730;53.068;6.572;2023-03-29T02:17:53;5.30;99.90
54832;DHT22;40730;53.068;6.572;2023-03-29T02:20:26;5.30;99.90
54832;DHT22;40730;53.068;6.572;2023-03-29T02:23:13;5.30;99.90
54832;DHT22;40730;53.068;6.572;2023-03-29T02:25:41;5.30;99.90
54832;DHT22;40730;53.068;6.572;2023-03-29T02:28:07;5.30;99.90
54832;DHT22;40730;53.068;6.572;2023-03-29T02:33:25;5.30;99.90
54832;DHT22;40730;53.068;6.572;2023-03-29T02:36:03;5.30;99.90
54832;DHT22;40730;53.068;6.572;2023-03-29T02:38:31;5.30;99.90
54832;DHT22;40730;53.068;6.572;2023-03-29T02:40:57;5.30;99.90
54832;DHT22;40730;53.068;6.572;2023-03-29T02:43:24;5.30;99.90
54832;DHT22;40730;53.068;6.572;2023-03-29T02:45:52;5.30;99.90
54832;DHT22;40730;53.068;6.572;2023-03-29T02:48:20;5.30;99.90
54832;DHT22;40730;53.068;6.572;2023-03-29T02:50:50;5.30;99.90
54832;DHT22;40730;53.068;6.572;2023-03-29T02:53:32;5.30;99.90
54832;DHT22;40730;53.068;6.572;2023-03-29T02:55:58;5.30;99.90
54832;DHT22;40730;53.068;6.572;2023-03-29T02:58:26;5.30;99.90
54832;DHT22;40730;53.068;6.572;2023-03-29T03:00:55;5.30;99.90
54832;DHT22;40730;53.068;6.572;2023-03-29T03:03:21;5.30;99.90
54832;DHT22;40730;53.068;6.572;2023-03-29T03:05:47;5.30;99.90
54832;DHT22;40730;53.068;6.572;2023-03-29T03:08:13;5.30;99.90
54832;DHT22;40730;53.068;6.572;2023-03-29T03:10:40;5.30;99.90
54832;DHT22;40730;53.068;6.572;2023-03-29T03:13:05;5.30;99.90
54832;DHT22;40730;53.068;6.572;2023-03-29T03:15:32;5.30;99.90
54832;DHT22;40730;53.068;6.572;2023-03-29T03:18:02;5.30;99.90
54832;DHT22;40730;53.068;6.572;2023-03-29T03:20:28;5.30;99.90
54832;DHT22;40730;53.068;6.572;2023-03-29T03:22:55;5.40;99.90
54832;DHT22;40730;53.068;6.572;2023-03-29T03:25:22;5.30;99.90
54832;DHT22;40730;53.068;6.572;2023-03-29T03:27:48;5.30;99.90
54832;DHT22;40730;53.068;6.572;2023-03-29T03:30:15;5.40;99.90
54832;DHT22;40730;53.068;6.572;2023-03-29T03:32:41;5.40;99.90
54832;DHT22;40730;53.068;6.572;2023-03-29T03:35:09;5.40;99.90
54832;DHT22;40730;53.068;6.572;2023-03-29T03:37:36;5.40;99.90
54832;DHT22;40730;53.068;6.572;2023-03-29T03:40:03;5.40;99.90
54832;DHT22;40730;53.068;6.572;2023-03-29T03:42:34;5.40;99.90
54832;DHT22;40730;53.068;6.572;2023-03-29T03:44:59;5.30;99.90
54832;DHT22;40730;53.068;6.572;2023-03-29T03:47:25;5.30;99.90
54832;DHT22;40730;53.068;6.572;2023-03-29T03:49:50;5.40;99.90
54832;DHT22;40730;53.068;6.572;2023-03-29T03:52:17;5.40;99.90
54832;DHT22;40730;53.068;6.572;2023-03-29T03:54:43;5.40;99.90
54832;DHT22;40730;53.068;6.572;2023-03-29T03:57:11;5.40;99.90
54832;DHT22;40730;53.068;6.572;2023-03-29T03:59:36;5.50;99.90
54832;DHT22;40730;53.068;6.572;2023-03-29T04:02:03;5.50;99.90
54832;DHT22;40730;53.068;6.572;2023-03-29T04:04:29;5.50;99.90
54832;DHT22;40730;53.068;6.572;2023-03-29T04:06:55;5.50;99.90
54832;DHT22;40730;53.068;6.572;2023-03-29T04:09:30;5.50;99.90
54832;DHT22;40730;53.068;6.572;2023-03-29T04:11:57;5.50;99.90
54832;DHT22;40730;53.068;6.572;2023-03-29T04:14:23;5.60;99.90
54832;DHT22;40730;53.068;6.572;2023-03-29T04:16:48;5.60;99.90
54832;DHT22;40730;53.068;6.572;2023-03-29T04:19:14;5.60;99.90
54832;DHT22;40730;53.068;6.572;2023-03-29T04:21:40;5.60;99.90
54832;DHT22;40730;53.068;6.572;2023-03-29T04:24:07;5.60;99.90
54832;DHT22;40730;53.068;6.572;2023-03-29T04:26:32;5.60;99.90
54832;DHT22;40730;53.068;6.572;2023-03-29T04:28:58;5.60;99.90
54832;DHT22;40730;53.068;6.572;2023-03-29T04:31:24;5.60;99.90
54832;DHT22;40730;53.068;6.572;2023-03-29T04:33:49;5.60;99.90
54832;DHT22;40730;53.068;6.572;2023-03-29T04:36:15;5.60;99.90
54832;DHT22;40730;53.068;6.572;2023-03-29T04:38:41;5.60;99.90
54832;DHT22;40730;53.068;6.572;2023-03-29T04:41:07;6.00;99.90
54832;DHT22;40730;53.068;6.572;2023-03-29T04:43:34;5.60;99.90
54832;DHT22;40730;53.068;6.572;2023-03-29T04:46:00;5.60;99.90
54832;DHT22;40730;53.068;6.572;2023-03-29T04:48:26;5.60;99.90
54832;DHT22;40730;53.068;6.572;2023-03-29T04:50:52;5.60;99.90
54832;DHT22;40730;53.068;6.572;2023-03-29T04:53:19;5.60;99.90
54832;DHT22;40730;53.068;6.572;2023-03-29T04:55:46;5.60;99.90
54832;DHT22;40730;53.068;6.572;2023-03-29T04:58:12;5.60;99.90
54832;DHT22;40730;53.068;6.572;2023-03-29T05:00:38;5.70;99.90
54832;DHT22;40730;53.068;6.572;2023-03-29T05:03:03;5.70;99.90
54832;DHT22;40730;53.068;6.572;2023-03-29T05:05:30;5.70;99.90
54832;DHT22;40730;53.068;6.572;2023-03-29T05:07:56;5.70;99.90
54832;DHT22;40730;53.068;6.572;2023-03-29T05:10:21;5.70;99.90
54832;DHT22;40730;53.068;6.572;2023-03-29T05:12:48;5.70;99.90
54832;DHT22;40730;53.068;6.572;2023-03-29T05:15:19;5.70;99.90
54832;DHT22;40730;53.068;6.572;2023-03-29T05:17:45;5.70;99.90
54832;DHT22;40730;53.068;6.572;2023-03-29T05:20:11;5.70;99.90
54832;DHT22;40730;53.068;6.572;2023-03-29T05:22:37;5.70;99.90
54832;DHT22;40730;53.068;6.572;2023-03-29T05:25:04;5.70;99.90
54832;DHT22;40730;53.068;6.572;2023-03-29T05:27:30;5.70;99.90
54832;DHT22;40730;53.068;6.572;2023-03-29T05:29:55;5.70;99.90
54832;DHT22;40730;53.068;6.572;2023-03-29T05:32:21;5.80;99.90
54832;DHT22;40730;53.068;6.572;2023-03-29T05:34:47;5.80;99.90
54832;DHT22;40730;53.068;6.572;2023-03-29T05:37:12;5.80;99.90
54832;DHT22;40730;53.068;6.572;2023-03-29T05:39:38;5.80;99.90
54832;DHT22;40730;53.068;6.572;2023-03-29T05:42:04;5.80;99.90
54832;DHT22;40730;53.068;6.572;2023-03-29T05:44:30;5.70;99.90
54832;DHT22;40730;53.068;6.572;2023-03-29T05:46:56;5.80;99.90
54832;DHT22;40730;53.068;6.572;2023-03-29T05:49:22;5.80;99.90
54832;DHT22;40730;53.068;6.572;2023-03-29T05:51:48;5.80;99.90
54832;DHT22;40730;53.068;6.572;2023-03-29T05:54:14;5.80;99.90
54832;DHT22;40730;53.068;6.572;2023-03-29T05:56:39;5.80;99.90
54832;DHT22;40730;53.068;6.572;2023-03-29T05:59:05;5.80;99.90
54832;DHT22;40730;53.068;6.572;2023-03-29T06:01:33;5.70;99.90
54832;DHT22;40730;53.068;6.572;2023-03-29T06:03:59;5.70;99.90
54832;DHT22;40730;53.068;6.572;2023-03-29T06:06:25;5.70;99.90
54832;DHT22;40730;53.068;6.572;2023-03-29T06:08:50;5.70;99.90
54832;DHT22;40730;53.068;6.572;2023-03-29T06:11:16;5.70;99.90
54832;DHT22;40730;53.068;6.572;2023-03-29T06:13:42;5.70;99.90
54832;DHT22;40730;53.068;6.572;2023-03-29T06:16:09;5.70;99.90
54832;DHT22;40730;53.068;6.572;2023-03-29T06:18:35;5.70;99.90
54832;DHT22;40730;53.068;6.572;2023-03-29T06:21:02;5.60;99.90
54832;DHT22;40730;53.068;6.572;2023-03-29T06:23:29;5.60;99.90
54832;DHT22;40730;53.068;6.572;2023-03-29T06:25:56;5.60;99.90
54832;DHT22;40730;53.068;6.572;2023-03-29T06:28:22;5.60;99.90
54832;DHT22;40730;53.068;6.572;2023-03-29T06:30:48;5.60;99.90
54832;DHT22;40730;53.068;6.572;2023-03-29T06:33:14;5.60;99.90
54832;DHT22;40730;53.068;6.572;2023-03-29T06:35:45;5.70;99.90
54832;DHT22;40730;53.068;6.572;2023-03-29T06:38:12;5.70;99.90
54832;DHT22;40730;53.068;6.572;2023-03-29T06:40:38;5.70;99.90
54832;DHT22;40730;53.068;6.572;2023-03-29T06:43:05;5.70;99.90
54832;DHT22;40730;53.068;6.572;2023-03-29T06:45:33;5.80;99.90
54832;DHT22;40730;53.068;6.572;2023-03-29T06:47:59;5.80;99.90
54832;DHT22;40730;53.068;6.572;2023-03-29T06:50:26;5.80;99.90
54832;DHT22;40730;53.068;6.572;2023-03-29T06:52:52;5.90;99.90
54832;DHT22;40730;53.068;6.572;2023-03-29T06:55:17;5.90;99.90
54832;DHT22;40730;53.068;6.572;2023-03-29T06:57:44;5.90;99.90
54832;DHT22;40730;53.068;6.572;2023-03-29T07:00:10;6.00;99.90
54832;DHT22;40730;53.068;6.572;2023-03-29T07:02:46;6.00;99.90
54832;DHT22;40730;53.068;6.572;2023-03-29T07:05:13;6.00;99.90
54832;DHT22;40730;53.068;6.572;2023-03-29T07:07:41;6.00;99.90
54832;DHT22;40730;53.068;6.572;2023-03-29T07:10:27;6.10;99.90
54832;DHT22;40730;53.068;6.572;2023-03-29T07:12:54;6.10;99.90
54832;DHT22;40730;53.068;6.572;2023-03-29T07:15:20;6.10;99.90
54832;DHT22;40730;53.068;6.572;2023-03-29T07:17:47;6.10;99.90
54832;DHT22;40730;53.068;6.572;2023-03-29T07:20:13;6.20;99.90
54832;DHT22;40730;53.068;6.572;2023-03-29T07:22:41;6.30;99.90
54832;DHT22;40730;53.068;6.572;2023-03-29T07:25:08;6.30;99.90
54832;DHT22;40730;53.068;6.572;2023-03-29T07:27:38;6.40;99.90
54832;DHT22;40730;53.068;6.572;2023-03-29T07:30:06;6.50;99.90
54832;DHT22;40730;53.068;6.572;2023-03-29T07:32:36;6.50;99.90
54832;DHT22;40730;53.068;6.572;2023-03-29T07:35:04;6.50;99.90
54832;DHT22;40730;53.068;6.572;2023-03-29T07:37:31;6.50;99.90
54832;DHT22;40730;53.068;6.572;2023-03-29T07:39:57;6.60;99.90
54832;DHT22;40730;53.068;6.572;2023-03-29T07:42:24;6.60;99.90
54832;DHT22;40730;53.068;6.572;2023-03-29T07:44:50;6.60;99.90
54832;DHT22;40730;53.068;6.572;2023-03-29T07:47:15;6.70;99.90
54832;DHT22;40730;53.068;6.572;2023-03-29T07:49:41;6.70;99.90
54832;DHT22;40730;53.068;6.572;2023-03-29T07:52:07;6.70;99.90
54832;DHT22;40730;53.068;6.572;2023-03-29T07:54:33;6.80;99.90
54832;DHT22;40730;53.068;6.572;2023-03-29T07:56:59;6.80;99.90
54832;DHT22;40730;53.068;6.572;2023-03-29T07:59:25;6.90;99.90
54832;DHT22;40730;53.068;6.572;2023-03-29T08:01:52;6.90;99.90
54832;DHT22;40730;53.068;6.572;2023-03-29T08:04:18;7.00;99.90
54832;DHT22;40730;53.068;6.572;2023-03-29T08:06:44;7.00;99.90
54832;DHT22;40730;53.068;6.572;2023-03-29T08:09:10;7.00;99.90
54832;DHT22;40730;53.068;6.572;2023-03-29T08:11:35;7.10;99.90
54832;DHT22;40730;53.068;6.572;2023-03-29T08:14:04;7.20;99.90
54832;DHT22;40730;53.068;6.572;2023-03-29T08:16:30;7.20;99.90
54832;DHT22;40730;53.068;6.572;2023-03-29T08:18:56;7.20;99.90
54832;DHT22;40730;53.068;6.572;2023-03-29T08:21:21;7.30;99.90
54832;DHT22;40730;53.068;6.572;2023-03-29T08:23:47;7.40;99.90
54832;DHT22;40730;53.068;6.572;2023-03-29T08:26:13;7.50;99.90
54832;DHT22;40730;53.068;6.572;2023-03-29T08:28:40;7.50;99.90
54832;DHT22;40730;53.068;6.572;2023-03-29T08:31:07;7.50;99.90
54832;DHT22;40730;53.068;6.572;2023-03-29T08:33:34;7.90;99.90
54832;DHT22;40730;53.068;6.572;2023-03-29T08:36:01;7.60;99.90
54832;DHT22;40730;53.068;6.572;2023-03-29T08:38:27;7.60;99.90
54832;DHT22;40730;53.068;6.572;2023-03-29T08:40:53;7.70;99.90
54832;DHT22;40730;53.068;6.572;2023-03-29T08:48:26;7.70;99.90
54832;DHT22;40730;53.068;6.572;2023-03-29T08:50:57;7.90;99.90
54832;DHT22;40730;53.068;6.572;2023-03-29T08:53:30;8.20;99.90
54832;DHT22;40730;53.068;6.572;2023-03-29T08:55:58;8.20;99.90
54832;DHT22;40730;53.068;6.572;2023-03-29T08:58:28;8.30;99.90
54832;DHT22;40730;53.068;6.572;2023-03-29T09:00:58;8.40;99.90
54832;DHT22;40730;53.068;6.572;2023-03-29T09:03:31;8.40;99.90
54832;DHT22;40730;53.068;6.572;2023-03-29T09:06:03;8.50;99.90
54832;DHT22;40730;53.068;6.572;2023-03-29T09:08:30;8.60;99.90
54832;DHT22;40730;53.068;6.572;2023-03-29T09:16:20;8.70;99.90
54832;DHT22;40730;53.068;6.572;2023-03-29T09:24:37;9.10;99.90
54832;DHT22;40730;53.068;6.572;2023-03-29T09:32:41;9.20;99.90
54832;DHT22;40730;53.068;6.572;2023-03-29T09:37:55;9.30;99.90
54832;DHT22;40730;53.068;6.572;2023-03-29T09:40:23;9.50;99.90
54832;DHT22;40730;53.068;6.572;2023-03-29T09:42:51;9.60;99.90
54832;DHT22;40730;53.068;6.572;2023-03-29T09:45:18;9.70;99.90
54832;DHT22;40730;53.068;6.572;2023-03-29T09:47:59;9.80;99.90
54832;DHT22;40730;53.068;6.572;2023-03-29T09:50:36;10.20;99.90
54832;DHT22;40730;53.068;6.572;2023-03-29T09:53:03;10.10;99.90
54832;DHT22;40730;53.068;6.572;2023-03-29T09:55:31;10.20;99.90
54832;DHT22;40730;53.068;6.572;2023-03-29T09:58:17;10.20;99.90
54832;DHT22;40730;53.068;6.572;2023-03-29T10:00:45;10.20;99.90
54832;DHT22;40730;53.068;6.572;2023-03-29T10:03:25;10.20;99.90
54832;DHT22;40730;53.068;6.572;2023-03-29T10:05:52;10.20;99.90
54832;DHT22;40730;53.068;6.572;2023-03-29T10:08:35;10.20;99.90
54832;DHT22;40730;53.068;6.572;2023-03-29T10:11:12;10.30;99.90
54832;DHT22;40730;53.068;6.572;2023-03-29T10:13:50;10.40;99.90
54832;DHT22;40730;53.068;6.572;2023-03-29T10:19:22;10.50;99.90
54832;DHT22;40730;53.068;6.572;2023-03-29T10:21:52;10.40;99.90
54832;DHT22;40730;53.068;6.572;2023-03-29T10:24:21;10.40;99.90
54832;DHT22;40730;53.068;6.572;2023-03-29T10:26:50;10.40;99.90
54832;DHT22;40730;53.068;6.572;2023-03-29T10:29:20;10.60;99.90
54832;DHT22;40730;53.068;6.572;2023-03-29T10:31:47;10.50;99.90
54832;DHT22;40730;53.068;6.572;2023-03-29T10:34:14;10.50;99.90
54832;DHT22;40730;53.068;6.572;2023-03-29T10:36:50;10.50;99.90
54832;DHT22;40730;53.068;6.572;2023-03-29T10:39:18;10.70;99.90
54832;DHT22;40730;53.068;6.572;2023-03-29T10:41:44;10.90;99.90
54832;DHT22;40730;53.068;6.572;2023-03-29T10:44:26;11.30;99.90
54832;DHT22;40730;53.068;6.572;2023-03-29T10:46:52;11.40;99.90
54832;DHT22;40730;53.068;6.572;2023-03-29T10:49:20;11.50;99.90
54832;DHT22;40730;53.068;6.572;2023-03-29T10:51:47;11.60;99.90
54832;DHT22;40730;53.068;6.572;2023-03-29T10:54:16;11.70;99.90
54832;DHT22;40730;53.068;6.572;2023-03-29T10:56:56;12.00;99.90
54832;DHT22;40730;53.068;6.572;2023-03-29T11:00:08;12.10;99.90
54832;DHT22;40730;53.068;6.572;2023-03-29T11:05:01;12.40;99.90
54832;DHT22;40730;53.068;6.572;2023-03-29T11:23:51;15.00;99.90
54832;DHT22;40730;53.068;6.572;2023-03-29T11:29:16;14.70;99.90
54832;DHT22;40730;53.068;6.572;2023-03-29T11:37:20;14.60;99.90
54832;DHT22;40730;53.068;6.572;2023-03-29T11:42:30;14.30;99.90
54832;DHT22;40730;53.068;6.572;2023-03-29T11:44:59;14.10;99.90
54832;DHT22;40730;53.068;6.572;2023-03-29T11:47:35;14.10;99.90
54832;DHT22;40730;53.068;6.572;2023-03-29T11:52:53;14.10;99.90
54832;DHT22;40730;53.068;6.572;2023-03-29T11:55:31;14.10;99.90
54832;DHT22;40730;53.068;6.572;2023-03-29T11:58:05;14.00;99.90
54832;DHT22;40730;53.068;6.572;2023-03-29T12:00:36;14.10;99.90
54832;DHT22;40730;53.068;6.572;2023-03-29T12:03:35;14.10;99.90
54832;DHT22;40730;53.068;6.572;2023-03-29T12:06:43;14.00;99.90
54832;DHT22;40730;53.068;6.572;2023-03-29T12:12:14;14.40;99.90
54832;DHT22;40730;53.068;6.572;2023-03-29T12:17:43;14.80;99.90
54832;DHT22;40730;53.068;6.572;2023-03-29T12:20:21;15.40;99.90
54832;DHT22;40730;53.068;6.572;2023-03-29T12:22:51;15.70;99.90
54832;DHT22;40730;53.068;6.572;2023-03-29T12:25:24;15.90;99.90
54832;DHT22;40730;53.068;6.572;2023-03-29T12:28:12;16.40;99.90
54832;DHT22;40730;53.068;6.572;2023-03-29T12:39:12;15.90;99.90
54832;DHT22;40730;53.068;6.572;2023-03-29T12:41:39;15.60;99.90
54832;DHT22;40730;53.068;6.572;2023-03-29T12:44:12;15.50;99.90
54832;DHT22;40730;53.068;6.572;2023-03-29T12:46:39;15.40;99.90
54832;DHT22;40730;53.068;6.572;2023-03-29T12:49:33;15.40;99.90
54832;DHT22;40730;53.068;6.572;2023-03-29T12:52:01;15.20;99.90
54832;DHT22;40730;53.068;6.572;2023-03-29T12:54:31;15.10;99.90
54832;DHT22;40730;53.068;6.572;2023-03-29T12:57:17;15.20;99.90
54832;DHT22;40730;53.068;6.572;2023-03-29T12:59:46;15.00;99.90
54832;DHT22;40730;53.068;6.572;2023-03-29T13:04:51;15.20;99.90
54832;DHT22;40730;53.068;6.572;2023-03-29T13:09:56;15.00;99.90
54832;DHT22;40730;53.068;6.572;2023-03-29T13:12:27;14.80;99.90
54832;DHT22;40730;53.068;6.572;2023-03-29T13:14:59;14.60;99.90
54832;DHT22;40730;53.068;6.572;2023-03-29T13:17:34;14.40;99.90
54832;DHT22;40730;53.068;6.572;2023-03-29T13:34:19;14.30;99.90
54832;DHT22;40730;53.068;6.572;2023-03-29T13:37:01;14.20;99.90
54832;DHT22;40730;53.068;6.572;2023-03-29T13:39:32;14.20;99.90
54832;DHT22;40730;53.068;6.572;2023-03-29T13:42:53;14.30;99.90
54832;DHT22;40730;53.068;6.572;2023-03-29T13:45:28;14.40;99.90
54832;DHT22;40730;53.068;6.572;2023-03-29T13:50:53;14.20;99.90
54832;DHT22;40730;53.068;6.572;2023-03-29T13:53:35;14.30;99.90
54832;DHT22;40730;53.068;6.572;2023-03-29T13:56:05;14.20;99.90
54832;DHT22;40730;53.068;6.572;2023-03-29T13:58:53;14.20;99.90
54832;DHT22;40730;53.068;6.572;2023-03-29T14:04:15;14.60;99.90
54832;DHT22;40730;53.068;6.572;2023-03-29T14:06:47;14.60;99.90
54832;DHT22;40730;53.068;6.572;2023-03-29T14:09:16;14.70;99.90
54832;DHT22;40730;53.068;6.572;2023-03-29T14:11:44;14.90;99.90
54832;DHT22;40730;53.068;6.572;2023-03-29T14:14:10;15.30;99.90
54832;DHT22;40730;53.068;6.572;2023-03-29T14:16:38;15.40;99.90
54832;DHT22;40730;53.068;6.572;2023-03-29T14:19:14;15.80;99.90
54832;DHT22;40730;53.068;6.572;2023-03-29T14:21:42;16.30;99.90
54832;DHT22;40730;53.068;6.572;2023-03-29T14:24:21;16.50;99.90
54832;DHT22;40730;53.068;6.572;2023-03-29T14:26:47;16.30;99.90
54832;DHT22;40730;53.068;6.572;2023-03-29T14:29:13;16.00;99.90
54832;DHT22;40730;53.068;6.572;2023-03-29T14:31:40;15.70;99.90
54832;DHT22;40730;53.068;6.572;2023-03-29T14:34:11;15.40;99.90
54832;DHT22;40730;53.068;6.572;2023-03-29T14:36:38;15.30;99.90
54832;DHT22;40730;53.068;6.572;2023-03-29T14:39:15;15.10;99.90
54832;DHT22;40730;53.068;6.572;2023-03-29T14:41:49;14.90;99.90
54832;DHT22;40730;53.068;6.572;2023-03-29T14:44:17;14.70;99.90
54832;DHT22;40730;53.068;6.572;2023-03-29T14:46:44;14.60;99.90
54832;DHT22;40730;53.068;6.572;2023-03-29T14:49:16;14.70;99.90
54832;DHT22;40730;53.068;6.572;2023-03-29T14:51:43;14.60;99.90
54832;DHT22;40730;53.068;6.572;2023-03-29T14:54:37;14.50;99.90
54832;DHT22;40730;53.068;6.572;2023-03-29T14:57:03;14.40;99.90
54832;DHT22;40730;53.068;6.572;2023-03-29T14:59:41;14.30;99.90
54832;DHT22;40730;53.068;6.572;2023-03-29T15:05:01;14.30;99.90
54832;DHT22;40730;53.068;6.572;2023-03-29T15:07:31;14.20;99.90
54832;DHT22;40730;53.068;6.572;2023-03-29T15:09:58;14.20;99.90
54832;DHT22;40730;53.068;6.572;2023-03-29T15:12:28;14.30;99.90
54832;DHT22;40730;53.068;6.572;2023-03-29T15:14:54;14.00;99.90
54832;DHT22;40730;53.068;6.572;2023-03-29T15:20:02;14.00;99.90
54832;DHT22;40730;53.068;6.572;2023-03-29T15:22:36;14.00;99.90
54832;DHT22;40730;53.068;6.572;2023-03-29T15:25:08;14.00;99.90
54832;DHT22;40730;53.068;6.572;2023-03-29T15:27:40;13.90;99.90
54832;DHT22;40730;53.068;6.572;2023-03-29T15:30:14;13.80;99.90
54832;DHT22;40730;53.068;6.572;2023-03-29T15:32:41;13.70;99.90
54832;DHT22;40730;53.068;6.572;2023-03-29T15:35:20;13.90;99.90
54832;DHT22;40730;53.068;6.572;2023-03-29T15:37:46;13.70;99.90
54832;DHT22;40730;53.068;6.572;2023-03-29T15:40:21;13.80;99.90
54832;DHT22;40730;53.068;6.572;2023-03-29T15:42:47;13.70;99.90
54832;DHT22;40730;53.068;6.572;2023-03-29T15:45:15;13.60;99.90
54832;DHT22;40730;53.068;6.572;2023-03-29T15:47:42;13.60;99.90
54832;DHT22;40730;53.068;6.572;2023-03-29T15:50:08;13.60;99.90
54832;DHT22;40730;53.068;6.572;2023-03-29T15:52:34;13.50;99.90
54832;DHT22;40730;53.068;6.572;2023-03-29T15:54:59;13.50;99.90
54832;DHT22;40730;53.068;6.572;2023-03-29T15:57:25;13.40;99.90
54832;DHT22;40730;53.068;6.572;2023-03-29T15:59:51;13.40;99.90
54832;DHT22;40730;53.068;6.572;2023-03-29T16:02:18;13.40;99.90
54832;DHT22;40730;53.068;6.572;2023-03-29T16:04:46;13.20;99.90
54832;DHT22;40730;53.068;6.572;2023-03-29T16:07:13;13.20;99.90
54832;DHT22;40730;53.068;6.572;2023-03-29T16:09:39;13.10;99.90
54832;DHT22;40730;53.068;6.572;2023-03-29T16:12:05;13.10;99.90
54832;DHT22;40730;53.068;6.572;2023-03-29T16:14:31;13.00;99.90
54832;DHT22;40730;53.068;6.572;2023-03-29T16:16:58;13.00;99.90
54832;DHT22;40730;53.068;6.572;2023-03-29T16:19:25;12.90;99.90
54832;DHT22;40730;53.068;6.572;2023-03-29T16:21:52;12.80;99.90
54832;DHT22;40730;53.068;6.572;2023-03-29T16:24:29;12.80;99.90
54832;DHT22;40730;53.068;6.572;2023-03-29T16:26:56;12.70;99.90
54832;DHT22;40730;53.068;6.572;2023-03-29T16:29:23;12.70;99.90
54832;DHT22;40730;53.068;6.572;2023-03-29T16:31:49;12.70;99.90
54832;DHT22;40730;53.068;6.572;2023-03-29T16:34:15;12.70;99.90
54832;DHT22;40730;53.068;6.572;2023-03-29T16:36:43;12.60;99.90
54832;DHT22;40730;53.068;6.572;2023-03-29T16:39:10;12.60;99.90
54832;DHT22;40730;53.068;6.572;2023-03-29T16:41:37;12.60;99.90
54832;DHT22;40730;53.068;6.572;2023-03-29T16:44:03;12.60;99.90
54832;DHT22;40730;53.068;6.572;2023-03-29T16:46:29;12.50;99.90
54832;DHT22;40730;53.068;6.572;2023-03-29T16:48:55;12.50;99.90
54832;DHT22;40730;53.068;6.572;2023-03-29T16:51:22;12.30;99.90
54832;DHT22;40730;53.068;6.572;2023-03-29T16:53:48;12.20;99.90
54832;DHT22;40730;53.068;6.572;2023-03-29T16:56:16;12.10;99.90
54832;DHT22;40730;53.068;6.572;2023-03-29T16:58:42;12.00;99.90
54832;DHT22;40730;53.068;6.572;2023-03-29T17:01:09;12.00;99.90
54832;DHT22;40730;53.068;6.572;2023-03-29T17:03:36;11.80;99.90
54832;DHT22;40730;53.068;6.572;2023-03-29T17:06:02;11.70;99.90
54832;DHT22;40730;53.068;6.572;2023-03-29T17:08:29;11.60;99.90
54832;DHT22;40730;53.068;6.572;2023-03-29T17:10:55;11.50;99.90
54832;DHT22;40730;53.068;6.572;2023-03-29T17:13:21;11.50;99.90
54832;DHT22;40730;53.068;6.572;2023-03-29T17:15:49;11.40;99.90
54832;DHT22;40730;53.068;6.572;2023-03-29T17:18:19;11.40;99.90
54832;DHT22;40730;53.068;6.572;2023-03-29T17:20:44;11.30;99.90
54832;DHT22;40730;53.068;6.572;2023-03-29T17:23:10;11.30;99.90
54832;DHT22;40730;53.068;6.572;2023-03-29T17:25:36;11.30;99.90
54832;DHT22;40730;53.068;6.572;2023-03-29T17:28:02;12.00;99.90
54832;DHT22;40730;53.068;6.572;2023-03-29T17:30:27;11.30;99.90
54832;DHT22;40730;53.068;6.572;2023-03-29T17:32:53;11.20;99.90
54832;DHT22;40730;53.068;6.572;2023-03-29T17:35:19;11.20;99.90
54832;DHT22;40730;53.068;6.572;2023-03-29T17:37:45;11.20;99.90
54832;DHT22;40730;53.068;6.572;2023-03-29T17:40:11;11.20;99.90
54832;DHT22;40730;53.068;6.572;2023-03-29T17:42:40;11.00;99.90
54832;DHT22;40730;53.068;6.572;2023-03-29T17:45:07;11.00;99.90
54832;DHT22;40730;53.068;6.572;2023-03-29T17:47:33;11.00;99.90
54832;DHT22;40730;53.068;6.572;2023-03-29T17:49:58;11.00;99.90
54832;DHT22;40730;53.068;6.572;2023-03-29T17:52:24;11.00;99.90